MSC109 SCFA-SPJC
Flight info
| Callsign | MSC109 |
|---|---|
| Flight time | N/A |
| Altitude | 40000 |
| Route | BRADA3B BRADA DCT ALDAX UL550 SCO ESEDI3 |
| Aircraft | E190/M-SDE3GILORVW/S |
Departure
| Time | 2026-04-17 13:45 |
|---|---|
| Airport | Andrés Sabella Gálvez International Airport (SCFA) |
Arrival
| Time | N/A |
|---|---|
| Airport | Jorge Chávez International Airport (SPJC) |
| Time | Latitude | Longitude | Altitude | Speed | Heading |
|---|---|---|---|---|---|
| 2026-04-17 13:08 | -23.44918 | -70.44185 | 460 ft | 0 kts | 96° |
| 2026-04-17 13:37 | -23.44916 | -70.44202 | 460 ft | 4 kts | 96° |
| 2026-04-17 13:37 | -23.44913 | -70.44231 | 460 ft | 4 kts | 106° |
| 2026-04-17 13:38 | -23.44902 | -70.44256 | 457 ft | 4 kts | 142° |
| 2026-04-17 13:38 | -23.44886 | -70.44264 | 460 ft | 0 kts | 187° |
| 2026-04-17 13:40 | -23.44889 | -70.44265 | 460 ft | 1 kts | 191° |
| 2026-04-17 13:40 | -23.44910 | -70.44268 | 460 ft | 4 kts | 185° |
| 2026-04-17 13:41 | -23.44949 | -70.44272 | 460 ft | 7 kts | 185° |
| 2026-04-17 13:41 | -23.44984 | -70.44296 | 460 ft | 6 kts | 249° |
| 2026-04-17 13:41 | -23.44984 | -70.44339 | 460 ft | 7 kts | 279° |
| 2026-04-17 13:41 | -23.45008 | -70.44388 | 461 ft | 10 kts | 189° |
| 2026-04-17 13:42 | -23.45098 | -70.44400 | 461 ft | 15 kts | 187° |
| 2026-04-17 13:42 | -23.45211 | -70.44417 | 461 ft | 11 kts | 204° |
| 2026-04-17 13:42 | -23.45223 | -70.44464 | 461 ft | 6 kts | 276° |
| 2026-04-17 13:42 | -23.45221 | -70.44482 | 461 ft | 1 kts | 277° |
| 2026-04-17 13:43 | -23.45219 | -70.44496 | 461 ft | 3 kts | 277° |
| 2026-04-17 13:43 | -23.45216 | -70.44532 | 461 ft | 8 kts | 277° |
| 2026-04-17 13:43 | -23.45233 | -70.44604 | 463 ft | 12 kts | 219° |
| 2026-04-17 13:43 | -23.45332 | -70.44620 | 463 ft | 17 kts | 185° |
| 2026-04-17 13:44 | -23.45470 | -70.44639 | 462 ft | 23 kts | 187° |
| 2026-04-17 13:44 | -23.45590 | -70.44629 | 463 ft | 3 kts | 201° |
| 2026-04-17 13:44 | -23.45582 | -70.44646 | 462 ft | 4 kts | 311° |
| 2026-04-17 13:44 | -23.45553 | -70.44649 | 463 ft | 0 kts | 6° |
| 2026-04-17 13:45 | -23.45462 | -70.44637 | 462 ft | 48 kts | 6° |
| 2026-04-17 13:45 | -23.44840 | -70.44564 | 459 ft | 130 kts | 6° |
| 2026-04-17 13:45 | -23.43736 | -70.44462 | 740 ft | 176 kts | 5° |
| 2026-04-17 13:45 | -23.42412 | -70.44379 | 1465 ft | 205 kts | 357° |
| 2026-04-17 13:46 | -23.40946 | -70.44589 | 2234 ft | 215 kts | 347° |
| 2026-04-17 13:46 | -23.39448 | -70.44926 | 3040 ft | 221 kts | 348° |
| 2026-04-17 13:46 | -23.37937 | -70.45255 | 3940 ft | 223 kts | 349° |
| 2026-04-17 13:46 | -23.36349 | -70.45582 | 4699 ft | 238 kts | 349° |
| 2026-04-17 13:47 | -23.34619 | -70.45931 | 5317 ft | 267 kts | 350° |
| 2026-04-17 13:47 | -23.33392 | -70.46173 | 5958 ft | 273 kts | 350° |
| 2026-04-17 13:47 | -23.31510 | -70.46542 | 7080 ft | 277 kts | 350° |
| 2026-04-17 13:47 | -23.29601 | -70.46917 | 8165 ft | 280 kts | 350° |
| 2026-04-17 13:48 | -23.27701 | -70.47287 | 9245 ft | 284 kts | 350° |
| 2026-04-17 13:48 | -23.25741 | -70.47666 | 10317 ft | 292 kts | 350° |
| 2026-04-17 13:48 | -23.23659 | -70.48070 | 10917 ft | 315 kts | 350° |
| 2026-04-17 13:48 | -23.21430 | -70.48508 | 11523 ft | 336 kts | 349° |
| 2026-04-17 13:49 | -23.19075 | -70.48972 | 12217 ft | 350 kts | 349° |
| 2026-04-17 13:49 | -23.16649 | -70.49450 | 13139 ft | 358 kts | 349° |
| 2026-04-17 13:49 | -23.14175 | -70.49934 | 14068 ft | 364 kts | 349° |
| 2026-04-17 13:49 | -23.11666 | -70.50425 | 14988 ft | 369 kts | 349° |
| 2026-04-17 13:50 | -23.09124 | -70.50920 | 15922 ft | 374 kts | 349° |
| 2026-04-17 13:50 | -23.06548 | -70.51425 | 16823 ft | 379 kts | 348° |
| 2026-04-17 13:50 | -23.03936 | -70.51938 | 17674 ft | 385 kts | 348° |
| 2026-04-17 13:50 | -23.01281 | -70.52489 | 18425 ft | 391 kts | 347° |
| 2026-04-17 13:51 | -22.98608 | -70.53129 | 19021 ft | 398 kts | 345° |
| 2026-04-17 13:51 | -22.95906 | -70.53907 | 19599 ft | 404 kts | 342° |
| 2026-04-17 13:51 | -22.93217 | -70.54851 | 20200 ft | 409 kts | 339° |
| 2026-04-17 13:51 | -22.90559 | -70.55990 | 20824 ft | 413 kts | 335° |
| 2026-04-17 13:52 | -22.87961 | -70.57340 | 21425 ft | 416 kts | 330° |
| 2026-04-17 13:52 | -22.85441 | -70.58919 | 21991 ft | 421 kts | 326° |
| 2026-04-17 13:52 | -22.83020 | -70.60740 | 22523 ft | 426 kts | 321° |
| 2026-04-17 13:52 | -22.80732 | -70.62803 | 23066 ft | 430 kts | 316° |
| 2026-04-17 13:53 | -22.78616 | -70.65099 | 23629 ft | 432 kts | 310° |
| 2026-04-17 13:53 | -22.76727 | -70.67578 | 24100 ft | 433 kts | 304° |
| 2026-04-17 13:53 | -22.75023 | -70.70328 | 24576 ft | 434 kts | 299° |
| 2026-04-17 13:53 | -22.73625 | -70.73174 | 25017 ft | 435 kts | 293° |
| 2026-04-17 13:54 | -22.71655 | -70.79392 | 25813 ft | 439 kts | 281° |
| 2026-04-17 13:54 | -22.71150 | -70.82658 | 26214 ft | 441 kts | 275° |
| 2026-04-17 13:55 | -22.71179 | -70.89304 | 27038 ft | 444 kts | 262° |
| 2026-04-17 13:55 | -22.71727 | -70.92601 | 27398 ft | 446 kts | 256° |
| 2026-04-17 13:55 | -22.73893 | -70.98935 | 28003 ft | 453 kts | 243° |
| 2026-04-17 13:56 | -22.77431 | -71.04626 | 28609 ft | 459 kts | 229° |
| 2026-04-17 13:56 | -22.79660 | -71.07105 | 28908 ft | 461 kts | 223° |
| 2026-04-17 13:56 | -22.82164 | -71.09291 | 29179 ft | 464 kts | 216° |
| 2026-04-17 13:57 | -22.84913 | -71.11152 | 29400 ft | 468 kts | 209° |
| 2026-04-17 13:57 | -22.87875 | -71.12655 | 29594 ft | 472 kts | 202° |
| 2026-04-17 13:57 | -22.94257 | -71.14471 | 30034 ft | 478 kts | 188° |
| 2026-04-17 13:58 | -22.97577 | -71.14745 | 30261 ft | 480 kts | 181° |
| 2026-04-17 13:58 | -23.04251 | -71.13959 | 30604 ft | 487 kts | 168° |
| 2026-04-17 13:58 | -23.07511 | -71.12882 | 30753 ft | 491 kts | 161° |
| 2026-04-17 13:59 | -23.13586 | -71.09397 | 31093 ft | 499 kts | 146° |
| 2026-04-17 13:59 | -23.16302 | -71.07024 | 31262 ft | 504 kts | 139° |
| 2026-04-17 13:59 | -23.18733 | -71.04274 | 31365 ft | 506 kts | 132° |
| 2026-04-17 14:00 | -23.20833 | -71.01204 | 31319 ft | 506 kts | 124° |
| 2026-04-17 14:00 | -23.22571 | -70.97864 | 31126 ft | 504 kts | 117° |
| 2026-04-17 14:00 | -23.23916 | -70.94322 | 30784 ft | 507 kts | 110° |
| 2026-04-17 14:00 | -23.24840 | -70.90674 | 30404 ft | 502 kts | 103° |
| 2026-04-17 14:01 | -23.25344 | -70.86913 | 30139 ft | 495 kts | 95° |
| 2026-04-17 14:01 | -23.25409 | -70.83166 | 29988 ft | 500 kts | 88° |
| 2026-04-17 14:01 | -23.25027 | -70.79409 | 30217 ft | 501 kts | 81° |
| 2026-04-17 14:01 | -23.24201 | -70.75745 | 30684 ft | 496 kts | 73° |
| 2026-04-17 14:02 | -23.22974 | -70.72244 | 30977 ft | 497 kts | 65° |
| 2026-04-17 14:02 | -23.19342 | -70.65718 | 30701 ft | 512 kts | 51° |
| 2026-04-17 14:02 | -23.16993 | -70.62849 | 30556 ft | 511 kts | 44° |
| 2026-04-17 14:03 | -23.14326 | -70.60319 | 30542 ft | 508 kts | 37° |
| 2026-04-17 14:03 | -23.11384 | -70.58176 | 30659 ft | 510 kts | 29° |
| 2026-04-17 14:03 | -23.08218 | -70.56462 | 30962 ft | 507 kts | 21° |
| 2026-04-17 14:03 | -23.04896 | -70.55207 | 31273 ft | 504 kts | 13° |
| 2026-04-17 14:04 | -23.01469 | -70.54425 | 31447 ft | 504 kts | 5° |
| 2026-04-17 14:04 | -22.94491 | -70.54295 | 31325 ft | 498 kts | 351° |
| 2026-04-17 14:04 | -22.91076 | -70.54942 | 31024 ft | 500 kts | 343° |
| 2026-04-17 14:05 | -22.87785 | -70.56050 | 30647 ft | 498 kts | 336° |
| 2026-04-17 14:05 | -22.84654 | -70.57620 | 30351 ft | 493 kts | 329° |
| 2026-04-17 14:05 | -22.81744 | -70.59633 | 30211 ft | 494 kts | 321° |
| 2026-04-17 14:05 | -22.79148 | -70.62033 | 30321 ft | 491 kts | 313° |
| 2026-04-17 14:06 | -22.76935 | -70.64753 | 30691 ft | 484 kts | 305° |
| 2026-04-17 14:06 | -22.75118 | -70.67781 | 31247 ft | 474 kts | 296° |
| 2026-04-17 14:06 | -22.73771 | -70.70998 | 31754 ft | 467 kts | 288° |
| 2026-04-17 14:06 | -22.72902 | -70.74371 | 32006 ft | 462 kts | 279° |
| 2026-04-17 14:07 | -22.72523 | -70.77833 | 31882 ft | 461 kts | 271° |
| 2026-04-17 14:07 | -22.72636 | -70.81337 | 31387 ft | 467 kts | 263° |
| 2026-04-17 14:07 | -22.73232 | -70.84814 | 30642 ft | 480 kts | 255° |
| 2026-04-17 14:07 | -22.74311 | -70.88223 | 29944 ft | 481 kts | 247° |
| 2026-04-17 14:08 | -22.75859 | -70.91468 | 29486 ft | 481 kts | 238° |
| 2026-04-17 14:08 | -22.80175 | -70.96964 | 30064 ft | 477 kts | 221° |
| 2026-04-17 14:08 | -22.82839 | -70.99058 | 30689 ft | 470 kts | 212° |
| 2026-04-17 14:09 | -22.85756 | -71.00636 | 31045 ft | 471 kts | 204° |
| 2026-04-17 14:09 | -22.88921 | -71.01681 | 30989 ft | 482 kts | 194° |
| 2026-04-17 14:09 | -22.92291 | -71.02141 | 30743 ft | 492 kts | 184° |
| 2026-04-17 14:09 | -22.95703 | -71.01971 | 30455 ft | 496 kts | 173° |
| 2026-04-17 14:10 | -22.99047 | -71.01166 | 30211 ft | 492 kts | 163° |
| 2026-04-17 14:10 | -23.02221 | -70.99734 | 30083 ft | 492 kts | 153° |
| 2026-04-17 14:10 | -23.05111 | -70.97716 | 30161 ft | 496 kts | 143° |
| 2026-04-17 14:10 | -23.07628 | -70.95158 | 30478 ft | 496 kts | 133° |
| 2026-04-17 14:11 | -23.09672 | -70.92160 | 30822 ft | 496 kts | 122° |
| 2026-04-17 14:11 | -23.11203 | -70.88790 | 30946 ft | 501 kts | 112° |
| 2026-04-17 14:11 | -23.12174 | -70.85116 | 30861 ft | 511 kts | 102° |
| 2026-04-17 14:11 | -23.12530 | -70.81309 | 30684 ft | 510 kts | 91° |
| 2026-04-17 14:12 | -23.12267 | -70.77489 | 30464 ft | 503 kts | 81° |
| 2026-04-17 14:12 | -23.11401 | -70.73787 | 30270 ft | 503 kts | 71° |
| 2026-04-17 14:12 | -23.09969 | -70.70315 | 30191 ft | 508 kts | 61° |
| 2026-04-17 14:13 | -23.05588 | -70.64387 | 30669 ft | 504 kts | 41° |
| 2026-04-17 14:13 | -23.02807 | -70.62087 | 30939 ft | 503 kts | 31° |
| 2026-04-17 14:13 | -22.96415 | -70.58984 | 31026 ft | 509 kts | 13° |
| 2026-04-17 14:14 | -22.89476 | -70.58048 | 31037 ft | 501 kts | 356° |
| 2026-04-17 14:14 | -22.82664 | -70.59294 | 31096 ft | 493 kts | 339° |
| 2026-04-17 14:15 | -22.76626 | -70.62556 | 31112 ft | 488 kts | 322° |
| 2026-04-17 14:15 | -22.71804 | -70.67578 | 31031 ft | 477 kts | 305° |
| 2026-04-17 14:16 | -22.68719 | -70.73916 | 30870 ft | 478 kts | 287° |
| 2026-04-17 14:16 | -22.67768 | -70.80955 | 30812 ft | 473 kts | 268° |
| 2026-04-17 14:17 | -22.68173 | -70.84499 | 30827 ft | 473 kts | 257° |
| 2026-04-17 14:17 | -22.69176 | -70.87898 | 30842 ft | 476 kts | 247° |
| 2026-04-17 14:17 | -22.70759 | -70.91029 | 30835 ft | 478 kts | 236° |
| 2026-04-17 14:17 | -22.72894 | -70.93786 | 30790 ft | 478 kts | 225° |
| 2026-04-17 14:18 | -22.75513 | -70.96034 | 30697 ft | 481 kts | 214° |
| 2026-04-17 14:18 | -22.78529 | -70.97665 | 30552 ft | 485 kts | 202° |
| 2026-04-17 14:18 | -22.81817 | -70.98575 | 30370 ft | 493 kts | 189° |
| 2026-04-17 14:18 | -22.85231 | -70.98690 | 30176 ft | 495 kts | 176° |
| 2026-04-17 14:19 | -22.88599 | -70.97973 | 30015 ft | 495 kts | 163° |
| 2026-04-17 14:19 | -22.91749 | -70.96442 | 29972 ft | 495 kts | 150° |
| 2026-04-17 14:19 | -22.94509 | -70.94185 | 30072 ft | 500 kts | 137° |
| 2026-04-17 14:19 | -22.96744 | -70.91304 | 30354 ft | 501 kts | 124° |
| 2026-04-17 14:20 | -22.98332 | -70.87940 | 30642 ft | 503 kts | 111° |
| 2026-04-17 14:20 | -22.99195 | -70.84251 | 30748 ft | 508 kts | 98° |
| 2026-04-17 14:20 | -22.99290 | -70.80401 | 30696 ft | 510 kts | 85° |
| 2026-04-17 14:20 | -22.98618 | -70.76616 | 30508 ft | 512 kts | 73° |
| 2026-04-17 14:21 | -22.97240 | -70.73090 | 30249 ft | 512 kts | 61° |
| 2026-04-17 14:21 | -22.95263 | -70.69992 | 30059 ft | 504 kts | 49° |
| 2026-04-17 14:21 | -22.92715 | -70.67347 | 29978 ft | 510 kts | 37° |
| 2026-04-17 14:21 | -22.89722 | -70.65323 | 30202 ft | 506 kts | 25° |
| 2026-04-17 14:22 | -22.86444 | -70.64007 | 30574 ft | 501 kts | 13° |
| 2026-04-17 14:22 | -22.83033 | -70.63403 | 30911 ft | 496 kts | 1° |
| 2026-04-17 14:22 | -22.79594 | -70.63489 | 31079 ft | 494 kts | 351° |
| 2026-04-17 14:22 | -22.76231 | -70.64248 | 31117 ft | 495 kts | 340° |
| 2026-04-17 14:23 | -22.73069 | -70.65643 | 31101 ft | 490 kts | 329° |
| 2026-04-17 14:23 | -22.70217 | -70.67615 | 31020 ft | 485 kts | 319° |
| 2026-04-17 14:23 | -22.67762 | -70.70099 | 30903 ft | 481 kts | 309° |
| 2026-04-17 14:23 | -22.65787 | -70.73017 | 30784 ft | 477 kts | 299° |
| 2026-04-17 14:24 | -22.64364 | -70.76272 | 30691 ft | 480 kts | 288° |
| 2026-04-17 14:24 | -22.63555 | -70.79746 | 30654 ft | 477 kts | 277° |
| 2026-04-17 14:24 | -22.63410 | -70.83323 | 30691 ft | 475 kts | 266° |
| 2026-04-17 14:24 | -22.63952 | -70.86844 | 30774 ft | 473 kts | 254° |
| 2026-04-17 14:25 | -22.65183 | -70.90160 | 30850 ft | 476 kts | 242° |
| 2026-04-17 14:25 | -22.67070 | -70.93105 | 30837 ft | 480 kts | 230° |
| 2026-04-17 14:25 | -22.69546 | -70.95514 | 30690 ft | 485 kts | 216° |
| 2026-04-17 14:25 | -22.72515 | -70.97242 | 30412 ft | 488 kts | 202° |
| 2026-04-17 14:26 | -22.75819 | -70.98141 | 30018 ft | 489 kts | 188° |
| 2026-04-17 14:26 | -22.79254 | -70.98119 | 29573 ft | 495 kts | 173° |
| 2026-04-17 14:26 | -22.82569 | -70.97177 | 29308 ft | 499 kts | 159° |
| 2026-04-17 14:26 | -22.85592 | -70.95348 | 29411 ft | 498 kts | 144° |
| 2026-04-17 14:27 | -22.88093 | -70.92762 | 29830 ft | 498 kts | 130° |
| 2026-04-17 14:27 | -22.89918 | -70.89588 | 30295 ft | 496 kts | 115° |
| 2026-04-17 14:27 | -22.90975 | -70.86029 | 30471 ft | 500 kts | 101° |
| 2026-04-17 14:27 | -22.91211 | -70.82237 | 30345 ft | 511 kts | 87° |
| 2026-04-17 14:28 | -22.90587 | -70.78463 | 30147 ft | 507 kts | 73° |
| 2026-04-17 14:28 | -22.89148 | -70.74959 | 29923 ft | 506 kts | 59° |
| 2026-04-17 14:28 | -22.86982 | -70.71930 | 29834 ft | 509 kts | 45° |
| 2026-04-17 14:28 | -22.84227 | -70.69552 | 29963 ft | 508 kts | 31° |
| 2026-04-17 14:29 | -22.81035 | -70.67955 | 30267 ft | 504 kts | 16° |
| 2026-04-17 14:29 | -22.77624 | -70.67206 | 30604 ft | 499 kts | 2° |
| 2026-04-17 14:29 | -22.74179 | -70.67283 | 30866 ft | 494 kts | 350° |
| 2026-04-17 14:29 | -22.70844 | -70.68144 | 31020 ft | 492 kts | 338° |
| 2026-04-17 14:30 | -22.67817 | -70.69704 | 31107 ft | 484 kts | 326° |
| 2026-04-17 14:30 | -22.65144 | -70.71913 | 31082 ft | 482 kts | 314° |
| 2026-04-17 14:30 | -22.62968 | -70.74654 | 30952 ft | 481 kts | 302° |
| 2026-04-17 14:30 | -22.61385 | -70.77802 | 30766 ft | 480 kts | 291° |
| 2026-04-17 14:31 | -22.60456 | -70.81244 | 30586 ft | 478 kts | 279° |
| 2026-04-17 14:31 | -22.60247 | -70.84827 | 30463 ft | 478 kts | 266° |
| 2026-04-17 14:31 | -22.60796 | -70.88373 | 30434 ft | 477 kts | 253° |
| 2026-04-17 14:31 | -22.62104 | -70.91683 | 30460 ft | 480 kts | 240° |
| 2026-04-17 14:32 | -22.64127 | -70.94547 | 30491 ft | 484 kts | 226° |
| 2026-04-17 14:32 | -22.66791 | -70.96769 | 30454 ft | 487 kts | 211° |
| 2026-04-17 14:32 | -22.69932 | -70.98140 | 30275 ft | 490 kts | 195° |
| 2026-04-17 14:32 | -22.73340 | -70.98506 | 29869 ft | 492 kts | 178° |
| 2026-04-17 14:33 | -22.76735 | -70.97798 | 29327 ft | 501 kts | 162° |
| 2026-04-17 14:33 | -22.79801 | -70.96087 | 28902 ft | 500 kts | 146° |
| 2026-04-17 14:33 | -22.82325 | -70.93480 | 28799 ft | 499 kts | 129° |
| 2026-04-17 14:33 | -22.84064 | -70.90229 | 28989 ft | 503 kts | 112° |
| 2026-04-17 14:34 | -22.84889 | -70.86565 | 29482 ft | 501 kts | 96° |
| 2026-04-17 14:34 | -22.84744 | -70.82815 | 29982 ft | 498 kts | 79° |
| 2026-04-17 14:34 | -22.83673 | -70.79244 | 30148 ft | 502 kts | 64° |
| 2026-04-17 14:34 | -22.81754 | -70.76064 | 30067 ft | 509 kts | 49° |
| 2026-04-17 14:35 | -22.79120 | -70.73511 | 30008 ft | 507 kts | 33° |
| 2026-04-17 14:35 | -22.75976 | -70.71795 | 30014 ft | 509 kts | 18° |
| 2026-04-17 14:35 | -22.73713 | -70.71182 | 30087 ft | 505 kts | 7° |
| 2026-04-17 14:35 | -22.69062 | -70.71285 | 30281 ft | 499 kts | 347° |
| 2026-04-17 14:36 | -22.66858 | -70.71969 | 30444 ft | 496 kts | 337° |
| 2026-04-17 14:36 | -22.63844 | -70.73699 | 30743 ft | 487 kts | 322° |
| 2026-04-17 14:36 | -22.61353 | -70.76135 | 31019 ft | 481 kts | 308° |
| 2026-04-17 14:36 | -22.59512 | -70.79114 | 31184 ft | 473 kts | 295° |
| 2026-04-17 14:37 | -22.58411 | -70.82458 | 31129 ft | 470 kts | 281° |
| 2026-04-17 14:37 | -22.58105 | -70.85996 | 30863 ft | 473 kts | 268° |
| 2026-04-17 14:37 | -22.58624 | -70.89523 | 30431 ft | 482 kts | 253° |
| 2026-04-17 14:37 | -22.59962 | -70.92830 | 29946 ft | 487 kts | 239° |
| 2026-04-17 14:38 | -22.62063 | -70.95677 | 29569 ft | 485 kts | 224° |
| 2026-04-17 14:38 | -22.64809 | -70.97832 | 29472 ft | 487 kts | 209° |
| 2026-04-17 14:38 | -22.67992 | -70.99091 | 29667 ft | 491 kts | 193° |
| 2026-04-17 14:38 | -22.71396 | -70.99333 | 30052 ft | 492 kts | 176° |
| 2026-04-17 14:39 | -22.74733 | -70.98514 | 30332 ft | 496 kts | 160° |
| 2026-04-17 14:39 | -22.77735 | -70.96627 | 30317 ft | 506 kts | 142° |
| 2026-04-17 14:39 | -22.80069 | -70.93814 | 29893 ft | 508 kts | 123° |
| 2026-04-17 14:39 | -22.81480 | -70.90322 | 29165 ft | 504 kts | 105° |
| 2026-04-17 14:40 | -22.81831 | -70.86522 | 28383 ft | 514 kts | 87° |
| 2026-04-17 14:40 | -22.81112 | -70.82805 | 27885 ft | 496 kts | 70° |
| 2026-04-17 14:40 | -22.79448 | -70.79532 | 27477 ft | 505 kts | 52° |
| 2026-04-17 14:40 | -22.76955 | -70.76918 | 27479 ft | 496 kts | 35° |
| 2026-04-17 14:41 | -22.73884 | -70.75235 | 27820 ft | 495 kts | 17° |
| 2026-04-17 14:41 | -22.70525 | -70.74639 | 28445 ft | 486 kts | 359° |
| 2026-04-17 14:41 | -22.67217 | -70.75153 | 28997 ft | 479 kts | 341° |
| 2026-04-17 14:41 | -22.64223 | -70.76701 | 29182 ft | 480 kts | 324° |
| 2026-04-17 14:42 | -22.61784 | -70.79175 | 29088 ft | 485 kts | 306° |
| 2026-04-17 14:42 | -22.60168 | -70.82378 | 29071 ft | 489 kts | 288° |
| 2026-04-17 14:42 | -22.59595 | -70.85982 | 29309 ft | 485 kts | 269° |
| 2026-04-17 14:42 | -22.60152 | -70.89556 | 29677 ft | 484 kts | 250° |
| 2026-04-17 14:43 | -22.61784 | -70.92720 | 29955 ft | 485 kts | 231° |
| 2026-04-17 14:43 | -22.64327 | -70.95127 | 29994 ft | 488 kts | 212° |
| 2026-04-17 14:43 | -22.67445 | -70.96480 | 29744 ft | 493 kts | 193° |
| 2026-04-17 14:43 | -22.70876 | -70.96656 | 29239 ft | 502 kts | 174° |
| 2026-04-17 14:44 | -22.74184 | -70.95604 | 28696 ft | 501 kts | 155° |
| 2026-04-17 14:44 | -22.77017 | -70.93424 | 28283 ft | 495 kts | 136° |
| 2026-04-17 14:44 | -22.79033 | -70.90410 | 27923 ft | 503 kts | 117° |
| 2026-04-17 14:44 | -22.80057 | -70.86838 | 27800 ft | 496 kts | 98° |
| 2026-04-17 14:45 | -22.79968 | -70.83084 | 27902 ft | 504 kts | 79° |
| 2026-04-17 14:45 | -22.78748 | -70.79546 | 28351 ft | 502 kts | 59° |
| 2026-04-17 14:45 | -22.76547 | -70.76656 | 28936 ft | 497 kts | 40° |
| 2026-04-17 14:45 | -22.73630 | -70.74699 | 29296 ft | 495 kts | 21° |
| 2026-04-17 14:46 | -22.70286 | -70.73843 | 29309 ft | 498 kts | 2° |
| 2026-04-17 14:46 | -22.66837 | -70.74197 | 29206 ft | 503 kts | 343° |
| 2026-04-17 14:46 | -22.63696 | -70.75743 | 29220 ft | 495 kts | 324° |
| 2026-04-17 14:46 | -22.61225 | -70.78305 | 29330 ft | 489 kts | 305° |
| 2026-04-17 14:47 | -22.59716 | -70.81579 | 29471 ft | 488 kts | 285° |
| 2026-04-17 14:47 | -22.59347 | -70.85197 | 29606 ft | 486 kts | 265° |
| 2026-04-17 14:47 | -22.60169 | -70.88716 | 29608 ft | 485 kts | 245° |
| 2026-04-17 14:47 | -22.62096 | -70.91716 | 29412 ft | 486 kts | 225° |
| 2026-04-17 14:48 | -22.64900 | -70.93801 | 29037 ft | 493 kts | 205° |
| 2026-04-17 14:48 | -22.68220 | -70.94683 | 28556 ft | 499 kts | 184° |
| 2026-04-17 14:48 | -22.71609 | -70.94251 | 28063 ft | 489 kts | 164° |
| 2026-04-17 14:48 | -22.74659 | -70.92564 | 27578 ft | 495 kts | 143° |
| 2026-04-17 14:49 | -22.76967 | -70.89888 | 27142 ft | 489 kts | 124° |
| 2026-04-17 14:49 | -22.78308 | -70.86479 | 26871 ft | 489 kts | 104° |
| 2026-04-17 14:49 | -22.78512 | -70.82814 | 26743 ft | 496 kts | 84° |
| 2026-04-17 14:49 | -22.77546 | -70.79255 | 26912 ft | 494 kts | 63° |
| 2026-04-17 14:50 | -22.75513 | -70.76273 | 27351 ft | 494 kts | 43° |
| 2026-04-17 14:50 | -22.72709 | -70.74263 | 27889 ft | 490 kts | 22° |
| 2026-04-17 14:50 | -22.69383 | -70.73405 | 28290 ft | 487 kts | 1° |
| 2026-04-17 14:50 | -22.66077 | -70.73823 | 28414 ft | 489 kts | 341° |
| 2026-04-17 14:51 | -22.63054 | -70.75488 | 28424 ft | 492 kts | 321° |
| 2026-04-17 14:51 | -22.60779 | -70.78229 | 28516 ft | 489 kts | 300° |
| 2026-04-17 14:51 | -22.59605 | -70.81647 | 28670 ft | 488 kts | 278° |
| 2026-04-17 14:51 | -22.59716 | -70.85297 | 28845 ft | 489 kts | 256° |
| 2026-04-17 14:52 | -22.61123 | -70.88618 | 28957 ft | 490 kts | 234° |
| 2026-04-17 14:52 | -22.63630 | -70.91093 | 28853 ft | 492 kts | 211° |
| 2026-04-17 14:52 | -22.66844 | -70.92317 | 28462 ft | 490 kts | 189° |
| 2026-04-17 14:52 | -22.70269 | -70.92103 | 27789 ft | 497 kts | 166° |
| 2026-04-17 14:53 | -22.73331 | -70.90526 | 26982 ft | 485 kts | 144° |
| 2026-04-17 14:53 | -22.75628 | -70.87887 | 26028 ft | 487 kts | 123° |
| 2026-04-17 14:53 | -22.76910 | -70.84532 | 25242 ft | 479 kts | 103° |
| 2026-04-17 14:53 | -22.77057 | -70.80986 | 24589 ft | 470 kts | 83° |
| 2026-04-17 14:54 | -22.76080 | -70.77560 | 24209 ft | 481 kts | 63° |
| 2026-04-17 14:54 | -22.74125 | -70.74720 | 24210 ft | 472 kts | 43° |
| 2026-04-17 14:54 | -22.71372 | -70.72764 | 24542 ft | 476 kts | 22° |
| 2026-04-17 14:54 | -22.68179 | -70.71988 | 25230 ft | 469 kts | 1° |
| 2026-04-17 14:55 | -22.64996 | -70.72493 | 25929 ft | 461 kts | 339° |
| 2026-04-17 14:55 | -22.62219 | -70.74188 | 26294 ft | 462 kts | 318° |
| 2026-04-17 14:55 | -22.60191 | -70.76888 | 26330 ft | 469 kts | 296° |
| 2026-04-17 14:55 | -22.59251 | -70.80278 | 26339 ft | 477 kts | 274° |
| 2026-04-17 14:56 | -22.59613 | -70.83788 | 26437 ft | 473 kts | 251° |
| 2026-04-17 14:56 | -22.61252 | -70.86849 | 26562 ft | 473 kts | 228° |
| 2026-04-17 14:56 | -22.63925 | -70.88924 | 26624 ft | 475 kts | 204° |
| 2026-04-17 14:56 | -22.67171 | -70.89617 | 26514 ft | 478 kts | 179° |
| 2026-04-17 14:57 | -22.70402 | -70.88797 | 26162 ft | 486 kts | 155° |
| 2026-04-17 14:57 | -22.73045 | -70.86638 | 25643 ft | 475 kts | 132° |
| 2026-04-17 14:57 | -22.74686 | -70.83496 | 24996 ft | 485 kts | 108° |
| 2026-04-17 14:57 | -22.75068 | -70.79949 | 24427 ft | 470 kts | 86° |
| 2026-04-17 14:58 | -22.74216 | -70.76539 | 23838 ft | 482 kts | 64° |
| 2026-04-17 14:58 | -22.72242 | -70.73675 | 23563 ft | 467 kts | 43° |
| 2026-04-17 14:58 | -22.69542 | -70.71828 | 23394 ft | 476 kts | 21° |
| 2026-04-17 14:58 | -22.66317 | -70.71184 | 23620 ft | 472 kts | 358° |
| 2026-04-17 14:59 | -22.63090 | -70.71958 | 24066 ft | 471 kts | 334° |
| 2026-04-17 14:59 | -22.60519 | -70.73992 | 24665 ft | 464 kts | 310° |
| 2026-04-17 14:59 | -22.58951 | -70.76986 | 25196 ft | 459 kts | 285° |
| 2026-04-17 14:59 | -22.58715 | -70.80408 | 25426 ft | 463 kts | 260° |
| 2026-04-17 15:00 | -22.59909 | -70.83639 | 25390 ft | 470 kts | 234° |
| 2026-04-17 15:00 | -22.62301 | -70.85975 | 25079 ft | 472 kts | 209° |
| 2026-04-17 15:00 | -22.65402 | -70.86942 | 24532 ft | 461 kts | 184° |
| 2026-04-17 15:00 | -22.68564 | -70.86385 | 23709 ft | 468 kts | 159° |
| 2026-04-17 15:01 | -22.71221 | -70.84447 | 22816 ft | 459 kts | 135° |
| 2026-04-17 15:01 | -22.72912 | -70.81581 | 21965 ft | 451 kts | 112° |
| 2026-04-17 15:01 | -22.73445 | -70.78201 | 21284 ft | 467 kts | 89° |
| 2026-04-17 15:01 | -22.72723 | -70.74868 | 21033 ft | 447 kts | 65° |
| 2026-04-17 15:02 | -22.70890 | -70.72142 | 20911 ft | 461 kts | 41° |
| 2026-04-17 15:02 | -22.68162 | -70.70426 | 21157 ft | 453 kts | 17° |
| 2026-04-17 15:02 | -22.65033 | -70.70107 | 21642 ft | 456 kts | 351° |
| 2026-04-17 15:02 | -22.62094 | -70.71304 | 22328 ft | 454 kts | 324° |
| 2026-04-17 15:03 | -22.59980 | -70.73793 | 22918 ft | 453 kts | 297° |
| 2026-04-17 15:03 | -22.59152 | -70.77058 | 23269 ft | 457 kts | 270° |
| 2026-04-17 15:03 | -22.59785 | -70.80398 | 23519 ft | 454 kts | 244° |
| 2026-04-17 15:03 | -22.61750 | -70.83067 | 23686 ft | 455 kts | 217° |
| 2026-04-17 15:04 | -22.64621 | -70.84473 | 23696 ft | 460 kts | 191° |
| 2026-04-17 15:04 | -22.67773 | -70.84301 | 23408 ft | 464 kts | 164° |
| 2026-04-17 15:04 | -22.70529 | -70.82605 | 22939 ft | 454 kts | 138° |
| 2026-04-17 15:04 | -22.72331 | -70.79765 | 22325 ft | 467 kts | 112° |
| 2026-04-17 15:05 | -22.72850 | -70.76371 | 21821 ft | 452 kts | 88° |
| 2026-04-17 15:05 | -22.72044 | -70.73066 | 21289 ft | 468 kts | 63° |
| 2026-04-17 15:05 | -22.70047 | -70.70394 | 21067 ft | 450 kts | 38° |
| 2026-04-17 15:05 | -22.67240 | -70.68869 | 20920 ft | 461 kts | 13° |
| 2026-04-17 15:06 | -22.64121 | -70.68770 | 20993 ft | 450 kts | 347° |
| 2026-04-17 15:06 | -22.61275 | -70.70153 | 21233 ft | 447 kts | 321° |
| 2026-04-17 15:06 | -22.59317 | -70.72740 | 21613 ft | 450 kts | 294° |
| 2026-04-17 15:06 | -22.58687 | -70.76027 | 22167 ft | 450 kts | 266° |
| 2026-04-17 15:07 | -22.59570 | -70.79235 | 22766 ft | 450 kts | 238° |
| 2026-04-17 15:07 | -22.61782 | -70.81602 | 23256 ft | 454 kts | 210° |
| 2026-04-17 15:07 | -22.64797 | -70.82530 | 23506 ft | 457 kts | 181° |
| 2026-04-17 15:07 | -22.67888 | -70.81785 | 23443 ft | 456 kts | 154° |
| 2026-04-17 15:08 | -22.70317 | -70.79543 | 23059 ft | 463 kts | 127° |
| 2026-04-17 15:08 | -22.71546 | -70.76392 | 22398 ft | 462 kts | 100° |
| 2026-04-17 15:08 | -22.71343 | -70.72894 | 21706 ft | 466 kts | 73° |
| 2026-04-17 15:08 | -22.69810 | -70.69898 | 21062 ft | 450 kts | 48° |
| 2026-04-17 15:09 | -22.67315 | -70.68089 | 21036 ft | 433 kts | 15° |
| 2026-04-17 15:09 | -22.64644 | -70.68156 | 23472 ft | 320 kts | 356° |
| 2026-04-17 15:09 | -22.63071 | -70.67565 | 26309 ft | 183 kts | 48° |
| 2026-04-17 15:09 | -22.62620 | -70.66437 | 26887 ft | 170 kts | 80° |
| 2026-04-17 15:10 | -22.62427 | -70.64905 | 25429 ft | 249 kts | 84° |
| 2026-04-17 15:10 | -22.62132 | -70.63025 | 25400 ft | 235 kts | 77° |
| 2026-04-17 15:10 | -22.61625 | -70.61586 | 26281 ft | 186 kts | 62° |
| 2026-04-17 15:11 | -22.59576 | -70.59306 | 25144 ft | 245 kts | 29° |
| 2026-04-17 15:11 | -22.58067 | -70.58698 | 25492 ft | 214 kts | 7° |
| 2026-04-17 15:11 | -22.56668 | -70.58724 | 25707 ft | 199 kts | 345° |
| 2026-04-17 15:11 | -22.55345 | -70.59327 | 25260 ft | 218 kts | 323° |
| 2026-04-17 15:12 | -22.54269 | -70.60491 | 25085 ft | 216 kts | 300° |
| 2026-04-17 15:12 | -22.53764 | -70.61920 | 25294 ft | 196 kts | 276° |
| 2026-04-17 15:12 | -22.53881 | -70.63362 | 25209 ft | 197 kts | 251° |
| 2026-04-17 15:12 | -22.54593 | -70.64659 | 24942 ft | 207 kts | 227° |
| 2026-04-17 15:13 | -22.55778 | -70.65504 | 24946 ft | 203 kts | 201° |
| 2026-04-17 15:13 | -22.57152 | -70.65679 | 24978 ft | 201 kts | 176° |
| 2026-04-17 15:13 | -22.58484 | -70.65170 | 24839 ft | 210 kts | 150° |
| 2026-04-17 15:13 | -22.59528 | -70.64050 | 24750 ft | 215 kts | 125° |
| 2026-04-17 15:14 | -22.60032 | -70.62544 | 24758 ft | 214 kts | 99° |
| 2026-04-17 15:14 | -22.59902 | -70.60940 | 24705 ft | 218 kts | 74° |
| 2026-04-17 15:14 | -22.59157 | -70.59512 | 24608 ft | 221 kts | 49° |
| 2026-04-17 15:14 | -22.57929 | -70.58538 | 24567 ft | 219 kts | 23° |
| 2026-04-17 15:15 | -22.56459 | -70.58209 | 24535 ft | 216 kts | 357° |
| 2026-04-17 15:15 | -22.55017 | -70.58576 | 24460 ft | 213 kts | 331° |
| 2026-04-17 15:15 | -22.53887 | -70.59561 | 24406 ft | 208 kts | 305° |
| 2026-04-17 15:15 | -22.53300 | -70.60951 | 24375 ft | 202 kts | 278° |
| 2026-04-17 15:16 | -22.53375 | -70.62441 | 24326 ft | 199 kts | 251° |
| 2026-04-17 15:16 | -22.54089 | -70.63706 | 24264 ft | 199 kts | 224° |
| 2026-04-17 15:16 | -22.55277 | -70.64448 | 24222 ft | 200 kts | 197° |
| 2026-04-17 15:16 | -22.56663 | -70.64484 | 24183 ft | 203 kts | 169° |
| 2026-04-17 15:17 | -22.57920 | -70.63796 | 24141 ft | 207 kts | 142° |
| 2026-04-17 15:17 | -22.58755 | -70.62527 | 24110 ft | 211 kts | 114° |
| 2026-04-17 15:17 | -22.58962 | -70.60956 | 24080 ft | 214 kts | 86° |
| 2026-04-17 15:17 | -22.58490 | -70.59429 | 24038 ft | 217 kts | 59° |
| 2026-04-17 15:18 | -22.57434 | -70.58272 | 24004 ft | 218 kts | 32° |
| 2026-04-17 15:18 | -22.56019 | -70.57736 | 23966 ft | 216 kts | 5° |
| 2026-04-17 15:18 | -22.54550 | -70.57931 | 23939 ft | 213 kts | 337° |
| 2026-04-17 15:18 | -22.53350 | -70.58802 | 23909 ft | 207 kts | 309° |
| 2026-04-17 15:19 | -22.52682 | -70.60148 | 23876 ft | 203 kts | 281° |
| 2026-04-17 15:19 | -22.52699 | -70.61640 | 23838 ft | 199 kts | 253° |
| 2026-04-17 15:19 | -22.53381 | -70.62894 | 23806 ft | 198 kts | 224° |
| 2026-04-17 15:19 | -22.54567 | -70.63615 | 23772 ft | 199 kts | 195° |
| 2026-04-17 15:20 | -22.55942 | -70.63592 | 23738 ft | 202 kts | 166° |
| 2026-04-17 15:20 | -22.57146 | -70.62817 | 23726 ft | 205 kts | 137° |
| 2026-04-17 15:20 | -22.57861 | -70.61457 | 23711 ft | 209 kts | 107° |
| 2026-04-17 15:20 | -22.57882 | -70.59883 | 23683 ft | 214 kts | 78° |
| 2026-04-17 15:21 | -22.57209 | -70.58452 | 23645 ft | 217 kts | 50° |
| 2026-04-17 15:21 | -22.55995 | -70.57511 | 23623 ft | 217 kts | 21° |
| 2026-04-17 15:21 | -22.54526 | -70.57282 | 23609 ft | 214 kts | 352° |
| 2026-04-17 15:21 | -22.53153 | -70.57813 | 23584 ft | 209 kts | 323° |
| 2026-04-17 15:22 | -22.52202 | -70.58960 | 23566 ft | 204 kts | 294° |
| 2026-04-17 15:22 | -22.51901 | -70.60423 | 23547 ft | 199 kts | 265° |
| 2026-04-17 15:22 | -22.52097 | -70.61382 | 23534 ft | 197 kts | 246° |
| 2026-04-17 15:22 | -22.53304 | -70.62783 | 23482 ft | 197 kts | 207° |
| 2026-04-17 15:23 | -22.54642 | -70.63061 | 23448 ft | 199 kts | 177° |
| 2026-04-17 15:23 | -22.55938 | -70.62548 | 23442 ft | 203 kts | 147° |
| 2026-04-17 15:23 | -22.56827 | -70.61364 | 23427 ft | 208 kts | 116° |
| 2026-04-17 15:23 | -22.57057 | -70.60335 | 23396 ft | 211 kts | 96° |
| 2026-04-17 15:24 | -22.56510 | -70.58335 | 23377 ft | 216 kts | 54° |
| 2026-04-17 15:24 | -22.55781 | -70.57578 | 23358 ft | 216 kts | 33° |
| 2026-04-17 15:24 | -22.54397 | -70.57054 | 23342 ft | 215 kts | 3° |
| 2026-04-17 15:24 | -22.52957 | -70.57331 | 23328 ft | 210 kts | 332° |
| 2026-04-17 15:25 | -22.51867 | -70.58328 | 23326 ft | 205 kts | 301° |
| 2026-04-17 15:25 | -22.51419 | -70.59747 | 23312 ft | 200 kts | 271° |
| 2026-04-17 15:25 | -22.51719 | -70.61181 | 23294 ft | 197 kts | 240° |
| 2026-04-17 15:25 | -22.52669 | -70.62211 | 23281 ft | 196 kts | 209° |
| 2026-04-17 15:26 | -22.53988 | -70.62533 | 23259 ft | 199 kts | 178° |
| 2026-04-17 15:26 | -22.55288 | -70.62039 | 23245 ft | 203 kts | 147° |
| 2026-04-17 15:26 | -22.56172 | -70.60852 | 23239 ft | 207 kts | 115° |
| 2026-04-17 15:26 | -22.56355 | -70.59306 | 23215 ft | 212 kts | 83° |
| 2026-04-17 15:27 | -22.55760 | -70.57851 | 23198 ft | 215 kts | 51° |
| 2026-04-17 15:27 | -22.54548 | -70.56930 | 23177 ft | 215 kts | 19° |
| 2026-04-17 15:27 | -22.53078 | -70.56823 | 23163 ft | 213 kts | 346° |
| 2026-04-17 15:27 | -22.51804 | -70.57553 | 23151 ft | 207 kts | 313° |
| 2026-04-17 15:28 | -22.51110 | -70.58867 | 23153 ft | 201 kts | 281° |
| 2026-04-17 15:28 | -22.51191 | -70.60338 | 23145 ft | 197 kts | 248° |
| 2026-04-17 15:28 | -22.52002 | -70.61497 | 23119 ft | 196 kts | 216° |
| 2026-04-17 15:28 | -22.53280 | -70.61976 | 23108 ft | 198 kts | 184° |
| 2026-04-17 15:29 | -22.54605 | -70.61607 | 23110 ft | 202 kts | 151° |
| 2026-04-17 15:29 | -22.55551 | -70.60489 | 23089 ft | 207 kts | 118° |
| 2026-04-17 15:29 | -22.55798 | -70.58953 | 23081 ft | 212 kts | 85° |
| 2026-04-17 15:29 | -22.55252 | -70.57506 | 23075 ft | 214 kts | 52° |
| 2026-04-17 15:30 | -22.54061 | -70.56568 | 23054 ft | 215 kts | 19° |
| 2026-04-17 15:30 | -22.52596 | -70.56454 | 23039 ft | 212 kts | 346° |
| 2026-04-17 15:30 | -22.51331 | -70.57191 | 23036 ft | 206 kts | 312° |
| 2026-04-17 15:30 | -22.50665 | -70.58513 | 23040 ft | 200 kts | 279° |
| 2026-04-17 15:31 | -22.50794 | -70.59974 | 23031 ft | 197 kts | 246° |
| 2026-04-17 15:31 | -22.51658 | -70.61084 | 23013 ft | 196 kts | 213° |
| 2026-04-17 15:31 | -22.52960 | -70.61468 | 23009 ft | 198 kts | 179° |
| 2026-04-17 15:31 | -22.54255 | -70.60977 | 22999 ft | 203 kts | 146° |
| 2026-04-17 15:32 | -22.55095 | -70.59755 | 22993 ft | 208 kts | 112° |
| 2026-04-17 15:32 | -22.55169 | -70.58198 | 22993 ft | 212 kts | 78° |
| 2026-04-17 15:32 | -22.54427 | -70.56827 | 22967 ft | 215 kts | 43° |
| 2026-04-17 15:32 | -22.53107 | -70.56112 | 22951 ft | 214 kts | 8° |
| 2026-04-17 15:33 | -22.51662 | -70.56295 | 22952 ft | 210 kts | 334° |
| 2026-04-17 15:33 | -22.50582 | -70.57291 | 22953 ft | 204 kts | 299° |
| 2026-04-17 15:33 | -22.50229 | -70.58726 | 22947 ft | 198 kts | 265° |
| 2026-04-17 15:33 | -22.50704 | -70.60089 | 22940 ft | 196 kts | 231° |
| 2026-04-17 15:34 | -22.51827 | -70.60887 | 22933 ft | 197 kts | 196° |
| 2026-04-17 15:34 | -22.53183 | -70.60819 | 22923 ft | 201 kts | 162° |
| 2026-04-17 15:34 | -22.54276 | -70.59891 | 22923 ft | 205 kts | 127° |
| 2026-04-17 15:34 | -22.54692 | -70.58420 | 22920 ft | 210 kts | 92° |
| 2026-04-17 15:35 | -22.54255 | -70.56914 | 22898 ft | 214 kts | 56° |
| 2026-04-17 15:35 | -22.53100 | -70.55925 | 22879 ft | 215 kts | 20° |
| 2026-04-17 15:35 | -22.51660 | -70.55804 | 22881 ft | 212 kts | 345° |
| 2026-04-17 15:35 | -22.50423 | -70.56578 | 22892 ft | 205 kts | 309° |
| 2026-04-17 15:36 | -22.49851 | -70.57943 | 22875 ft | 200 kts | 274° |
| 2026-04-17 15:36 | -22.50136 | -70.59371 | 22875 ft | 196 kts | 238° |
| 2026-04-17 15:36 | -22.51154 | -70.60318 | 22880 ft | 196 kts | 203° |
| 2026-04-17 15:36 | -22.52503 | -70.60412 | 22873 ft | 199 kts | 167° |
| 2026-04-17 15:37 | -22.53663 | -70.59601 | 22856 ft | 205 kts | 131° |
| 2026-04-17 15:37 | -22.54176 | -70.58164 | 22841 ft | 211 kts | 95° |
| 2026-04-17 15:37 | -22.53818 | -70.56641 | 22837 ft | 214 kts | 59° |
| 2026-04-17 15:37 | -22.52697 | -70.55610 | 22819 ft | 215 kts | 22° |
| 2026-04-17 15:38 | -22.51239 | -70.55479 | 22805 ft | 212 kts | 344° |
| 2026-04-17 15:38 | -22.50023 | -70.56295 | 22793 ft | 206 kts | 307° |
| 2026-04-17 15:38 | -22.49538 | -70.57700 | 22785 ft | 200 kts | 269° |
| 2026-04-17 15:38 | -22.49963 | -70.59085 | 22787 ft | 197 kts | 231° |
| 2026-04-17 15:39 | -22.51098 | -70.59863 | 22766 ft | 198 kts | 194° |
| 2026-04-17 15:39 | -22.52454 | -70.59698 | 22763 ft | 202 kts | 156° |
| 2026-04-17 15:39 | -22.53450 | -70.58641 | 22772 ft | 207 kts | 119° |
| 2026-04-17 15:39 | -22.53652 | -70.57106 | 22752 ft | 213 kts | 81° |
| 2026-04-17 15:40 | -22.52948 | -70.55714 | 22730 ft | 216 kts | 43° |
| 2026-04-17 15:40 | -22.51610 | -70.55050 | 22718 ft | 214 kts | 5° |
| 2026-04-17 15:40 | -22.50196 | -70.55383 | 22724 ft | 209 kts | 326° |
| 2026-04-17 15:40 | -22.49296 | -70.56551 | 22720 ft | 203 kts | 288° |
| 2026-04-17 15:41 | -22.49278 | -70.58025 | 22716 ft | 198 kts | 250° |
| 2026-04-17 15:41 | -22.50125 | -70.59152 | 22708 ft | 197 kts | 211° |
| 2026-04-17 15:41 | -22.51452 | -70.59426 | 22685 ft | 200 kts | 173° |
| 2026-04-17 15:41 | -22.52661 | -70.58704 | 22677 ft | 206 kts | 134° |
| 2026-04-17 15:42 | -22.53192 | -70.57272 | 22662 ft | 212 kts | 95° |
| 2026-04-17 15:42 | -22.52770 | -70.55761 | 22651 ft | 216 kts | 54° |
| 2026-04-17 15:42 | -22.51559 | -70.54850 | 22631 ft | 216 kts | 14° |
| 2026-04-17 15:42 | -22.50105 | -70.54954 | 22627 ft | 211 kts | 334° |
| 2026-04-17 15:43 | -22.49072 | -70.56002 | 22620 ft | 204 kts | 294° |
| 2026-04-17 15:43 | -22.48924 | -70.57476 | 22615 ft | 199 kts | 254° |
| 2026-04-17 15:43 | -22.49701 | -70.58664 | 22609 ft | 197 kts | 214° |
| 2026-04-17 15:43 | -22.51013 | -70.58995 | 22609 ft | 200 kts | 174° |
| 2026-04-17 15:44 | -22.52224 | -70.58318 | 22590 ft | 205 kts | 135° |
| 2026-04-17 15:44 | -22.52770 | -70.56898 | 22574 ft | 212 kts | 95° |
| 2026-04-17 15:44 | -22.52338 | -70.55389 | 22555 ft | 216 kts | 53° |
| 2026-04-17 15:44 | -22.51107 | -70.54513 | 22535 ft | 216 kts | 12° |
| 2026-04-17 15:45 | -22.49660 | -70.54694 | 22518 ft | 211 kts | 330° |
| 2026-04-17 15:45 | -22.48714 | -70.55827 | 22505 ft | 204 kts | 288° |
| 2026-04-17 15:45 | -22.48730 | -70.57304 | 22502 ft | 199 kts | 246° |
| 2026-04-17 15:45 | -22.49672 | -70.58344 | 22494 ft | 198 kts | 204° |
| 2026-04-17 15:46 | -22.51034 | -70.58387 | 22465 ft | 203 kts | 162° |
| 2026-04-17 15:46 | -22.52083 | -70.57379 | 22455 ft | 209 kts | 119° |
| 2026-04-17 15:46 | -22.52234 | -70.55828 | 22450 ft | 215 kts | 76° |
| 2026-04-17 15:46 | -22.51369 | -70.54538 | 22408 ft | 218 kts | 33° |
| 2026-04-17 15:47 | -22.49926 | -70.54201 | 22384 ft | 215 kts | 349° |
| 2026-04-17 15:47 | -22.48689 | -70.54983 | 22384 ft | 207 kts | 305° |
| 2026-04-17 15:47 | -22.48311 | -70.56417 | 22377 ft | 201 kts | 262° |
| 2026-04-17 15:47 | -22.48970 | -70.57694 | 22350 ft | 199 kts | 218° |
| 2026-04-17 15:48 | -22.50273 | -70.58091 | 22349 ft | 201 kts | 175° |
| 2026-04-17 15:48 | -22.51488 | -70.57372 | 22353 ft | 207 kts | 132° |
| 2026-04-17 15:48 | -22.51938 | -70.55909 | 22347 ft | 213 kts | 89° |
| 2026-04-17 15:48 | -22.51351 | -70.54461 | 22309 ft | 217 kts | 45° |
| 2026-04-17 15:49 | -22.50009 | -70.53800 | 22289 ft | 215 kts | 2° |
| 2026-04-17 15:49 | -22.48636 | -70.54274 | 22291 ft | 208 kts | 318° |
| 2026-04-17 15:49 | -22.47963 | -70.55588 | 22290 ft | 201 kts | 275° |
| 2026-04-17 15:49 | -22.48331 | -70.56994 | 22268 ft | 198 kts | 231° |
| 2026-04-17 15:50 | -22.49512 | -70.57690 | 22256 ft | 200 kts | 187° |
| 2026-04-17 15:50 | -22.50826 | -70.57259 | 22246 ft | 205 kts | 143° |
| 2026-04-17 15:50 | -22.51504 | -70.55913 | 22230 ft | 212 kts | 98° |
| 2026-04-17 15:50 | -22.51122 | -70.54390 | 22197 ft | 217 kts | 53° |
| 2026-04-17 15:51 | -22.49859 | -70.53563 | 22162 ft | 217 kts | 8° |
| 2026-04-17 15:51 | -22.48460 | -70.53896 | 22161 ft | 210 kts | 323° |
| 2026-04-17 15:51 | -22.47700 | -70.55157 | 22169 ft | 202 kts | 278° |
| 2026-04-17 15:51 | -22.48011 | -70.56581 | 22140 ft | 199 kts | 232° |
| 2026-04-17 15:52 | -22.49185 | -70.57301 | 22125 ft | 201 kts | 187° |
| 2026-04-17 15:52 | -22.50499 | -70.56857 | 22127 ft | 206 kts | 142° |
| 2026-04-17 15:52 | -22.51141 | -70.55490 | 22123 ft | 212 kts | 96° |
| 2026-04-17 15:52 | -22.50685 | -70.53992 | 22071 ft | 215 kts | 52° |
| 2026-04-17 15:53 | -22.49678 | -70.52922 | 22156 ft | 192 kts | 53° |
| 2026-04-17 15:53 | -22.49372 | -70.51547 | 21172 ft | 210 kts | 110° |
| 2026-04-17 15:53 | -22.50680 | -70.50750 | 18988 ft | 262 kts | 194° |